Time;durP1;ratioP1;P1;durP2;ratioP2;P2;SDS_P1;SDS_P2;PMS_P1;PMS_P2;Temp;Humidity;BMP_temperature;BMP_pressure;BME280_temperature;BME280_humidity;BME280_pressure;Samples;Min_cycle;Max_cycle;Signal;HPM_P1;HPM_P2
2021/12/23 00:00:01;;;;;;;;;;;-1.40;99.90;;;;;;5001653;28;20067;-70
2021/12/23 00:02:29;;;;;;;;;;;-1.50;99.90;;;;;;5002417;28;20141;-70
2021/12/23 00:04:56;;;;;;;;;;;-1.50;99.90;;;;;;5002817;28;20083;-70
2021/12/23 00:07:23;;;;;;;;;;;-1.50;99.90;;;;;;5002046;28;20060;-70
2021/12/23 00:10:04;;;;;;;;;;;-1.50;99.90;;;;;;5002339;28;20162;-70
2021/12/23 00:12:32;;;;;;;;;;;-1.50;99.90;;;;;;5002511;28;21127;-70
2021/12/23 00:14:59;;;;;;;;;;;-1.40;99.90;;;;;;5002150;28;21105;-70
2021/12/23 00:17:40;;;;;;;;;;;-1.40;99.90;;;;;;5001619;28;20161;-70
2021/12/23 00:25:39;;;;;;;;;;;-1.30;99.90;;;;;;4985319;28;20047;-70
2021/12/23 00:28:06;;;;;;;;;;;-1.30;99.90;;;;;;5001403;28;20066;-70
2021/12/23 00:30:33;;;;;;;;;;;-1.30;99.90;;;;;;5002073;28;20326;-70
2021/12/23 00:33:00;;;;;;;;;;;-1.30;99.90;;;;;;5002651;28;21112;-70
2021/12/23 00:35:29;;;;;;;;;;;-1.30;99.90;;;;;;5002190;28;20067;-70
2021/12/23 00:38:00;;;;;;;;;;;-1.40;99.90;;;;;;5000710;28;21132;-70
2021/12/23 00:40:27;;;;;;;;;;;-1.40;99.90;;;;;;5002020;28;20075;-70
2021/12/23 00:42:54;;;;;;;;;;;-1.40;99.90;;;;;;5002813;28;21175;-70
2021/12/23 00:45:22;;;;;;;;;;;-1.40;99.90;;;;;;5006178;28;20083;-70
2021/12/23 00:47:49;;;;;;;;;;;-1.40;99.90;;;;;;5005920;28;20060;-70
2021/12/23 00:50:16;;;;;;;;;;;-1.40;99.90;;;;;;5005313;28;20161;-71
2021/12/23 00:52:54;;;;;;;;;;;-1.40;99.90;;;;;;5005145;28;20073;-70
2021/12/23 00:55:21;;;;;;;;;;;-1.40;99.90;;;;;;4988602;28;21195;-70
2021/12/23 00:57:48;;;;;;;;;;;-1.40;99.90;;;;;;5005630;28;21134;-70
2021/12/23 01:00:18;;;;;;;;;;;-1.40;99.90;;;;;;5004671;28;20174;-71
2021/12/23 01:02:46;;;;;;;;;;;-1.40;99.90;;;;;;5005148;28;20273;-70
2021/12/23 01:05:13;;;;;;;;;;;-1.40;99.90;;;;;;5005740;28;20267;-70
2021/12/23 01:07:41;;;;;;;;;;;-1.40;99.90;;;;;;5005758;28;20060;-70
2021/12/23 01:10:10;;;;;;;;;;;-1.40;99.90;;;;;;5005161;28;20149;-70
2021/12/23 01:12:43;;;;;;;;;;;-1.40;99.90;;;;;;4991196;28;20075;-70
2021/12/23 01:15:16;;;;;;;;;;;-1.40;99.90;;;;;;4997378;28;20066;-70
2021/12/23 01:20:31;;;;;;;;;;;-1.40;99.90;;;;;;5016793;28;20284;-70
2021/12/23 01:23:00;;;;;;;;;;;-1.40;99.90;;;;;;5025089;28;20153;-70
2021/12/23 01:25:29;;;;;;;;;;;-1.40;99.90;;;;;;5025448;28;20214;-70
2021/12/23 01:27:57;;;;;;;;;;;-1.50;99.90;;;;;;5024331;28;20083;-70
2021/12/23 01:30:24;;;;;;;;;;;-1.50;99.90;;;;;;5025019;28;20060;-70
2021/12/23 01:32:52;;;;;;;;;;;-1.50;99.90;;;;;;5025059;28;20059;-70
2021/12/23 01:35:20;;;;;;;;;;;-1.50;99.90;;;;;;5025053;28;20059;-70
2021/12/23 01:37:47;;;;;;;;;;;-1.50;99.90;;;;;;5024192;28;21194;-70
2021/12/23 01:40:16;;;;;;;;;;;-1.50;99.90;;;;;;5025161;28;20068;-70
2021/12/23 01:42:45;;;;;;;;;;;-1.60;99.90;;;;;;5024615;28;21003;-71
2021/12/23 01:45:13;;;;;;;;;;;-1.60;99.90;;;;;;5024874;28;21033;-71
2021/12/23 01:47:40;;;;;;;;;;;-1.60;99.90;;;;;;5024254;28;20051;-70
2021/12/23 01:50:08;;;;;;;;;;;-1.60;99.90;;;;;;5024045;28;20068;-70
2021/12/23 01:52:35;;;;;;;;;;;-1.60;99.90;;;;;;5024747;28;20081;-70
2021/12/23 01:55:03;;;;;;;;;;;-1.60;99.90;;;;;;5023963;28;20068;-70
2021/12/23 01:57:31;;;;;;;;;;;-1.50;99.90;;;;;;5024004;28;21104;-71
2021/12/23 02:00:00;;;;;;;;;;;-1.50;99.90;;;;;;5023384;28;20066;-71
2021/12/23 02:02:28;;;;;;;;;;;-1.40;99.90;;;;;;5025189;28;20057;-70
2021/12/23 02:04:55;;;;;;;;;;;-1.50;99.90;;;;;;5024340;28;20052;-70
2021/12/23 02:07:22;;;;;;;;;;;-1.40;99.90;;;;;;5024176;28;20059;-70
2021/12/23 02:09:49;;;;;;;;;;;-1.40;99.90;;;;;;5023317;28;20315;-70
2021/12/23 02:12:16;;;;;;;;;;;-1.40;99.90;;;;;;5024414;28;20068;-70
2021/12/23 02:14:44;;;;;;;;;;;-1.30;99.90;;;;;;5024489;28;20051;-70
2021/12/23 02:17:13;;;;;;;;;;;-1.20;99.90;;;;;;5022391;28;20088;-70
2021/12/23 02:19:40;;;;;;;;;;;-1.20;99.90;;;;;;5023863;28;20079;-69
2021/12/23 02:22:08;;;;;;;;;;;-1.10;99.90;;;;;;5024359;28;20066;-70
2021/12/23 02:24:35;;;;;;;;;;;-1.10;99.90;;;;;;5023953;28;20161;-71
2021/12/23 02:27:03;;;;;;;;;;;-1.00;99.90;;;;;;5023615;28;20104;-69
2021/12/23 02:29:30;;;;;;;;;;;-1.00;99.90;;;;;;5006802;28;20052;-69
2021/12/23 02:31:58;;;;;;;;;;;-0.90;99.90;;;;;;5023730;28;21181;-69
2021/12/23 02:34:25;;;;;;;;;;;-0.90;99.90;;;;;;5024283;28;20064;-69
2021/12/23 02:36:53;;;;;;;;;;;-0.90;99.90;;;;;;5023571;28;20060;-69
2021/12/23 02:39:23;;;;;;;;;;;-0.90;99.90;;;;;;5023418;28;20075;-69
2021/12/23 02:41:50;;;;;;;;;;;-0.80;99.90;;;;;;5023397;28;21100;-70
2021/12/23 02:44:17;;;;;;;;;;;-0.80;99.90;;;;;;5023785;28;20067;-69
2021/12/23 02:46:45;;;;;;;;;;;-0.90;99.90;;;;;;5023705;28;20060;-69
2021/12/23 02:49:12;;;;;;;;;;;-0.90;99.90;;;;;;5023456;28;20075;-69
2021/12/23 02:51:39;;;;;;;;;;;-0.90;99.90;;;;;;5023506;28;20082;-69
2021/12/23 02:54:07;;;;;;;;;;;-0.90;99.90;;;;;;5023476;28;20082;-69
2021/12/23 02:56:35;;;;;;;;;;;-1.00;99.90;;;;;;5022823;28;20152;-69
2021/12/23 02:59:03;;;;;;;;;;;-1.00;99.90;;;;;;5022670;28;21170;-69
2021/12/23 03:01:30;;;;;;;;;;;-1.00;99.90;;;;;;5039273;22;20087;-69
2021/12/23 03:03:57;;;;;;;;;;;-1.00;99.90;;;;;;4986996;28;20171;-69
2021/12/23 03:06:25;;;;;;;;;;;-1.10;99.90;;;;;;4986680;28;20267;-69
2021/12/23 03:08:53;;;;;;;;;;;-1.10;99.90;;;;;;4986394;28;20052;-68
2021/12/23 03:11:22;;;;;;;;;;;-1.10;99.90;;;;;;5019499;28;20076;-69
2021/12/23 03:13:50;;;;;;;;;;;-1.10;99.90;;;;;;5020678;28;20058;-69
2021/12/23 03:16:19;;;;;;;;;;;-1.10;99.90;;;;;;5019404;28;20069;-69
2021/12/23 03:18:47;;;;;;;;;;;-1.10;99.90;;;;;;4986424;28;20060;-69
2021/12/23 03:21:14;;;;;;;;;;;-1.10;99.90;;;;;;5019230;28;21118;-69
2021/12/23 03:23:41;;;;;;;;;;;-1.10;99.90;;;;;;5020232;28;20142;-68
2021/12/23 03:26:08;;;;;;;;;;;-1.10;99.90;;;;;;5019364;28;20084;-68
2021/12/23 03:28:35;;;;;;;;;;;-1.10;99.90;;;;;;5019744;28;20067;-69
2021/12/23 03:31:04;;;;;;;;;;;-1.10;99.90;;;;;;5019720;28;20140;-69
2021/12/23 03:33:31;;;;;;;;;;;-1.10;99.90;;;;;;5019814;28;20150;-69
2021/12/23 03:35:59;;;;;;;;;;;-1.10;99.90;;;;;;5019133;28;20138;-69
2021/12/23 03:38:26;;;;;;;;;;;-1.10;99.90;;;;;;4986721;28;20178;-69
2021/12/23 03:40:53;;;;;;;;;;;-1.10;99.90;;;;;;5015699;28;20142;-70
2021/12/23 03:43:20;;;;;;;;;;;-1.10;99.90;;;;;;5026156;28;20077;-69
2021/12/23 03:45:49;;;;;;;;;;;-1.10;99.90;;;;;;5017846;28;20170;-69
2021/12/23 03:48:19;;;;;;;;;;;-1.20;99.90;;;;;;5025574;28;20083;-70
2021/12/23 03:50:47;;;;;;;;;;;-1.20;99.90;;;;;;4988305;28;20065;-70
2021/12/23 03:53:14;;;;;;;;;;;-1.30;99.90;;;;;;4988812;28;21266;-69
2021/12/23 03:55:42;;;;;;;;;;;-1.30;99.90;;;;;;4988166;28;20075;-69
2021/12/23 03:58:09;;;;;;;;;;;-1.30;99.90;;;;;;4988058;28;21136;-70
2021/12/23 04:00:36;;;;;;;;;;;-1.30;99.90;;;;;;4987815;28;20105;-70
2021/12/23 04:03:03;;;;;;;;;;;-1.40;99.90;;;;;;5021873;28;20069;-69
2021/12/23 04:05:32;;;;;;;;;;;-1.40;99.90;;;;;;4987989;28;21003;-70
2021/12/23 04:07:59;;;;;;;;;;;-1.30;99.90;;;;;;4988152;28;20133;-70
2021/12/23 04:10:27;;;;;;;;;;;-1.30;99.90;;;;;;5021165;28;20091;-70
2021/12/23 04:12:54;;;;;;;;;;;-1.30;99.90;;;;;;4988741;28;20296;-70
2021/12/23 04:15:21;;;;;;;;;;;-1.30;99.90;;;;;;4988209;28;21142;-69
2021/12/23 04:17:48;;;;;;;;;;;-1.40;99.90;;;;;;4988184;28;20050;-68
2021/12/23 04:20:18;;;;;;;;;;;-1.40;99.90;;;;;;4991693;28;20060;-69
2021/12/23 04:22:48;;;;;;;;;;;-1.40;99.90;;;;;;4992181;28;20198;-69
2021/12/23 04:25:16;;;;;;;;;;;-1.40;99.90;;;;;;4992111;28;20068;-68
2021/12/23 04:27:44;;;;;;;;;;;-1.50;99.90;;;;;;4991920;28;20061;-69
2021/12/23 04:30:12;;;;;;;;;;;-1.40;99.90;;;;;;4992245;28;20059;-70
2021/12/23 04:32:39;;;;;;;;;;;-1.40;99.90;;;;;;5025595;28;20132;-70
2021/12/23 04:35:06;;;;;;;;;;;-1.40;99.90;;;;;;4992085;28;20107;-70
2021/12/23 04:37:33;;;;;;;;;;;-1.40;99.90;;;;;;4991967;28;20060;-69
2021/12/23 04:40:02;;;;;;;;;;;-1.30;99.90;;;;;;4992012;28;20059;-70
2021/12/23 04:42:29;;;;;;;;;;;-1.30;99.90;;;;;;4991788;28;20150;-70
2021/12/23 04:44:56;;;;;;;;;;;-1.30;99.90;;;;;;4992073;28;20068;-70
2021/12/23 04:47:24;;;;;;;;;;;-1.40;99.90;;;;;;4991780;28;21121;-69
2021/12/23 04:49:51;;;;;;;;;;;-1.40;99.90;;;;;;4991600;28;21022;-70
2021/12/23 04:52:18;;;;;;;;;;;-1.40;99.90;;;;;;4991780;28;20069;-69
2021/12/23 04:54:45;;;;;;;;;;;-1.50;99.90;;;;;;4991699;28;20058;-70
2021/12/23 04:57:14;;;;;;;;;;;-1.50;99.90;;;;;;4991469;28;21038;-70
2021/12/23 04:59:41;;;;;;;;;;;-1.50;99.90;;;;;;5024300;28;20060;-70
2021/12/23 05:02:08;;;;;;;;;;;-1.60;99.90;;;;;;5023110;28;20060;-70
2021/12/23 05:04:35;;;;;;;;;;;-1.60;99.90;;;;;;5024658;28;20060;-70
2021/12/23 05:07:02;;;;;;;;;;;-1.70;99.90;;;;;;5024462;28;20060;-70
2021/12/23 05:09:29;;;;;;;;;;;-1.70;99.90;;;;;;4991079;28;21161;-70
2021/12/23 05:11:56;;;;;;;;;;;-1.80;99.90;;;;;;4991306;28;20075;-70
2021/12/23 05:14:25;;;;;;;;;;;-1.90;99.90;;;;;;5024607;28;20078;-70
2021/12/23 05:16:52;;;;;;;;;;;-2.00;99.90;;;;;;5024377;28;20057;-70
2021/12/23 05:19:19;;;;;;;;;;;-2.00;99.90;;;;;;4990011;28;20068;-68
2021/12/23 05:21:47;;;;;;;;;;;-1.90;99.90;;;;;;4988820;28;20077;-70
2021/12/23 05:24:14;;;;;;;;;;;-1.90;99.90;;;;;;4987390;28;20059;-70
2021/12/23 05:26:41;;;;;;;;;;;-1.90;99.90;;;;;;5022060;28;20088;-70
2021/12/23 05:29:09;;;;;;;;;;;-1.80;99.90;;;;;;4988745;28;20200;-71
2021/12/23 05:31:37;;;;;;;;;;;-1.80;99.90;;;;;;5019745;28;20083;-71
2021/12/23 05:34:05;;;;;;;;;;;-1.70;99.90;;;;;;5025957;28;20077;-71
2021/12/23 05:36:32;;;;;;;;;;;-1.60;99.90;;;;;;5028081;28;20137;-71
2021/12/23 05:38:59;;;;;;;;;;;-1.60;99.90;;;;;;4989434;28;20067;-68
2021/12/23 05:41:27;;;;;;;;;;;-1.60;99.90;;;;;;5024596;28;20088;-68
2021/12/23 05:43:54;;;;;;;;;;;-1.70;99.90;;;;;;5034404;28;20092;-71
2021/12/23 05:46:21;;;;;;;;;;;-1.70;99.90;;;;;;5041903;28;20071;-71
2021/12/23 05:48:50;;;;;;;;;;;-1.60;99.90;;;;;;5009075;28;20060;-70
2021/12/23 05:51:17;;;;;;;;;;;-1.60;99.90;;;;;;5000458;28;20144;-68
2021/12/23 05:53:44;;;;;;;;;;;-1.60;99.90;;;;;;5008722;28;21098;-69
2021/12/23 05:56:12;;;;;;;;;;;-1.60;99.90;;;;;;5042084;28;20068;-69
2021/12/23 05:58:39;;;;;;;;;;;-1.60;99.90;;;;;;5008539;28;20227;-69
2021/12/23 06:01:06;;;;;;;;;;;-1.60;99.90;;;;;;5041087;28;20077;-68
2021/12/23 06:03:34;;;;;;;;;;;-1.60;99.90;;;;;;4981513;28;20153;-68
2021/12/23 06:06:02;;;;;;;;;;;-1.60;99.90;;;;;;4996886;28;20170;-69
2021/12/23 06:08:29;;;;;;;;;;;-1.60;99.90;;;;;;4988760;28;21115;-69
2021/12/23 06:10:57;;;;;;;;;;;-1.50;99.90;;;;;;4988182;28;20077;-70
2021/12/23 06:13:24;;;;;;;;;;;-1.50;99.90;;;;;;4988363;28;20153;-70
2021/12/23 06:15:51;;;;;;;;;;;-1.40;99.90;;;;;;5004531;28;20085;-70
2021/12/23 06:18:18;;;;;;;;;;;-1.40;99.90;;;;;;5020754;28;20060;-72
2021/12/23 06:20:45;;;;;;;;;;;-1.30;99.90;;;;;;5005809;28;20051;-71
2021/12/23 06:23:14;;;;;;;;;;;-1.20;99.90;;;;;;4969053;28;20066;-71
2021/12/23 06:25:41;;;;;;;;;;;-1.20;99.90;;;;;;4968353;28;20060;-72
2021/12/23 06:28:08;;;;;;;;;;;-1.20;99.90;;;;;;4968386;28;21088;-72
2021/12/23 06:30:35;;;;;;;;;;;-1.10;99.90;;;;;;4967717;28;20150;-74
2021/12/23 06:33:02;;;;;;;;;;;-1.00;99.90;;;;;;4968024;28;20162;-69
2021/12/23 06:35:31;;;;;;;;;;;-1.00;99.90;;;;;;4968195;28;20069;-69
2021/12/23 06:38:16;;;;;;;;;;;-0.90;99.90;;;;;;4986794;28;20068;-68
2021/12/23 06:40:45;;;;;;;;;;;-0.80;99.90;;;;;;5004293;28;20132;-69
2021/12/23 06:43:13;;;;;;;;;;;-0.80;99.90;;;;;;4987436;28;20099;-70
2021/12/23 06:45:40;;;;;;;;;;;-0.90;99.90;;;;;;4987951;28;20059;-70
2021/12/23 06:48:07;;;;;;;;;;;-0.80;99.90;;;;;;5003491;28;20094;-70
2021/12/23 06:50:34;;;;;;;;;;;-0.80;99.90;;;;;;4987714;28;21072;-70
2021/12/23 06:53:01;;;;;;;;;;;-0.80;99.90;;;;;;4987673;28;21222;-69
2021/12/23 06:55:28;;;;;;;;;;;-0.70;99.90;;;;;;4986972;28;20060;-70
2021/12/23 06:57:57;;;;;;;;;;;-0.70;99.90;;;;;;4987105;28;20100;-69
2021/12/23 07:00:25;;;;;;;;;;;-0.70;99.90;;;;;;4987536;28;20084;-70
2021/12/23 07:02:53;;;;;;;;;;;-0.70;99.90;;;;;;4987721;28;20060;-69
2021/12/23 07:05:21;;;;;;;;;;;-0.70;99.90;;;;;;5004772;28;21090;-69
2021/12/23 07:07:55;;;;;;;;;;;-0.60;99.90;;;;;;4986809;28;21130;-69
2021/12/23 07:10:23;;;;;;;;;;;-0.60;99.90;;;;;;4986051;28;20168;-70
2021/12/23 07:12:50;;;;;;;;;;;-0.50;99.90;;;;;;4968283;28;20161;-70
2021/12/23 07:15:19;;;;;;;;;;;-0.50;99.90;;;;;;4968016;28;20062;-69
2021/12/23 07:17:46;;;;;;;;;;;-0.40;99.90;;;;;;4967685;28;20142;-69
2021/12/23 07:20:13;;;;;;;;;;;-0.40;99.90;;;;;;4967695;28;20069;-69
2021/12/23 07:22:41;;;;;;;;;;;-0.40;99.90;;;;;;4967285;28;21068;-70
2021/12/23 07:25:08;;;;;;;;;;;-0.40;99.90;;;;;;4968169;28;20059;-70
2021/12/23 07:27:35;;;;;;;;;;;-0.30;99.90;;;;;;4967608;28;20060;-70
2021/12/23 07:30:03;;;;;;;;;;;-0.30;99.90;;;;;;4967277;28;21120;-69
2021/12/23 07:32:31;;;;;;;;;;;-0.30;99.90;;;;;;4981569;28;20116;-70
2021/12/23 07:34:59;;;;;;;;;;;-0.30;99.90;;;;;;4985974;28;20077;-69
2021/12/23 07:37:26;;;;;;;;;;;-0.30;99.90;;;;;;5018508;28;20150;-70
2021/12/23 07:39:54;;;;;;;;;;;-0.30;99.90;;;;;;5019886;28;20095;-69
2021/12/23 07:42:22;;;;;;;;;;;-0.30;99.90;;;;;;5005872;28;20275;-70
2021/12/23 07:44:50;;;;;;;;;;;-0.30;99.90;;;;;;4988955;28;20077;-71
2021/12/23 07:47:17;;;;;;;;;;;-0.30;99.90;;;;;;4993982;28;20134;-70
2021/12/23 07:49:46;;;;;;;;;;;-0.30;99.90;;;;;;4986471;28;20084;-71
2021/12/23 07:52:13;;;;;;;;;;;-0.30;99.90;;;;;;4997370;28;20068;-70
2021/12/23 07:54:40;;;;;;;;;;;-0.30;99.90;;;;;;5030706;28;21064;-70
2021/12/23 07:57:08;;;;;;;;;;;-0.30;99.90;;;;;;4992533;28;20264;-70
2021/12/23 07:59:35;;;;;;;;;;;-0.20;99.90;;;;;;5026280;28;20077;-71
2021/12/23 08:02:02;;;;;;;;;;;-0.20;99.90;;;;;;5003055;28;20064;-70
2021/12/23 08:04:30;;;;;;;;;;;-0.20;99.90;;;;;;5005860;28;20088;-71
2021/12/23 08:07:02;;;;;;;;;;;-0.20;99.90;;;;;;5039102;28;20059;-75
2021/12/23 08:09:29;;;;;;;;;;;-0.10;99.90;;;;;;5001211;28;21134;-70
2021/12/23 08:11:56;;;;;;;;;;;-0.10;99.90;;;;;;4991909;28;20069;-71
2021/12/23 08:14:23;;;;;;;;;;;-0.10;99.90;;;;;;4986577;28;20059;-71
2021/12/23 08:16:50;;;;;;;;;;;0.00;99.90;;;;;;4985839;28;20063;-71
2021/12/23 08:19:17;;;;;;;;;;;0.00;99.90;;;;;;4986705;28;20069;-70
2021/12/23 08:21:44;;;;;;;;;;;0.00;99.90;;;;;;4986610;28;21114;-70
2021/12/23 08:24:13;;;;;;;;;;;0.00;99.90;;;;;;4986456;28;20059;-71
2021/12/23 08:26:43;;;;;;;;;;;0.10;99.90;;;;;;4986119;28;20074;-70
2021/12/23 08:29:10;;;;;;;;;;;0.10;99.90;;;;;;4985885;28;20153;-71
2021/12/23 08:31:37;;;;;;;;;;;0.20;99.90;;;;;;4986031;28;20069;-69
2021/12/23 08:34:05;;;;;;;;;;;0.20;99.90;;;;;;5006805;28;20208;-69
2021/12/23 08:36:32;;;;;;;;;;;0.30;99.90;;;;;;4987307;28;20154;-69
2021/12/23 08:38:59;;;;;;;;;;;0.30;99.90;;;;;;4987283;28;20060;-70
2021/12/23 08:41:28;;;;;;;;;;;0.30;99.90;;;;;;4987992;28;21241;-70
2021/12/23 08:43:55;;;;;;;;;;;0.40;99.90;;;;;;4987655;28;20051;-69
2021/12/23 08:46:22;;;;;;;;;;;0.50;99.90;;;;;;4987421;28;20060;-69
2021/12/23 08:48:49;;;;;;;;;;;0.50;99.90;;;;;;4986294;28;20167;-69
2021/12/23 08:51:17;;;;;;;;;;;0.60;99.90;;;;;;4979970;28;20066;-70
2021/12/23 08:53:44;;;;;;;;;;;0.70;99.90;;;;;;4965381;28;20072;-69
2021/12/23 08:56:11;;;;;;;;;;;0.70;99.90;;;;;;4965840;28;20082;-70
2021/12/23 08:58:40;;;;;;;;;;;0.90;99.90;;;;;;4966499;28;20166;-69
2021/12/23 09:01:07;;;;;;;;;;;0.90;99.90;;;;;;4982826;28;21086;-70
2021/12/23 09:03:35;;;;;;;;;;;1.00;99.90;;;;;;4982420;28;20061;-70
2021/12/23 09:06:03;;;;;;;;;;;1.10;99.90;;;;;;5020807;28;20068;-69
2021/12/23 09:08:30;;;;;;;;;;;1.20;99.90;;;;;;4993653;28;20095;-70
2021/12/23 09:10:58;;;;;;;;;;;1.30;99.90;;;;;;4989229;28;20082;-70
2021/12/23 09:13:26;;;;;;;;;;;1.40;99.90;;;;;;4989495;28;20058;-69
2021/12/23 09:15:54;;;;;;;;;;;1.40;99.90;;;;;;4988755;28;20118;-68
2021/12/23 09:18:24;;;;;;;;;;;1.50;99.90;;;;;;4988748;28;21157;-72
2021/12/23 09:20:52;;;;;;;;;;;1.60;99.90;;;;;;4989493;28;20060;-71
2021/12/23 09:23:20;;;;;;;;;;;1.70;99.90;;;;;;4998861;28;20107;-70
2021/12/23 09:25:48;;;;;;;;;;;1.70;99.90;;;;;;4991982;28;20068;-70
2021/12/23 09:28:27;;;;;;;;;;;1.70;99.90;;;;;;4986209;28;21170;-70
2021/12/23 09:33:41;;;;;;;;;;;1.80;99.90;;;;;;4989233;28;20170;-70
2021/12/23 09:36:08;;;;;;;;;;;1.80;99.90;;;;;;4980582;28;20080;-70
2021/12/23 09:38:35;;;;;;;;;;;1.90;99.90;;;;;;4986058;28;21186;-71
2021/12/23 09:41:05;;;;;;;;;;;2.00;99.90;;;;;;4990733;28;20077;-70
2021/12/23 09:43:34;;;;;;;;;;;2.10;99.90;;;;;;4984266;28;20077;-70
2021/12/23 09:46:02;;;;;;;;;;;2.30;99.90;;;;;;4983992;28;20068;-70
2021/12/23 09:48:30;;;;;;;;;;;2.40;99.90;;;;;;4984169;28;20077;-70
2021/12/23 09:50:59;;;;;;;;;;;2.50;99.90;;;;;;4994110;28;20058;-71
2021/12/23 09:53:26;;;;;;;;;;;2.60;99.90;;;;;;4993101;28;21090;-70
2021/12/23 09:55:53;;;;;;;;;;;2.60;99.90;;;;;;4988683;28;20060;-70
2021/12/23 09:58:21;;;;;;;;;;;2.60;99.90;;;;;;4995018;28;20069;-71
2021/12/23 10:00:48;;;;;;;;;;;2.60;99.90;;;;;;5003638;28;20050;-70
2021/12/23 10:03:19;;;;;;;;;;;2.70;99.90;;;;;;5041916;28;20211;-69
2021/12/23 10:05:47;;;;;;;;;;;2.70;99.90;;;;;;5008176;28;20075;-71
2021/12/23 10:08:15;;;;;;;;;;;2.80;99.90;;;;;;5007894;28;21088;-71
2021/12/23 10:10:47;;;;;;;;;;;2.90;99.90;;;;;;5038053;28;20166;-71
2021/12/23 10:32:51;;;;;;;;;;;3.50;99.90;;;;;;4989605;28;20054;-70
2021/12/23 10:38:05;;;;;;;;;;;3.60;99.90;;;;;;4987611;28;20060;-71
2021/12/23 10:40:33;;;;;;;;;;;3.70;99.90;;;;;;4996022;28;20086;-71
2021/12/23 10:43:01;;;;;;;;;;;3.70;99.90;;;;;;4995554;28;20170;-70
2021/12/23 10:45:34;;;;;;;;;;;3.70;99.90;;;;;;5040259;28;20088;-70
2021/12/23 10:48:09;;;;;;;;;;;3.80;99.90;;;;;;5025619;28;20075;-70
2021/12/23 10:50:41;;;;;;;;;;;3.80;99.90;;;;;;5027334;28;21101;-71
2021/12/23 10:53:13;;;;;;;;;;;3.80;99.90;;;;;;4995934;28;20139;-70
2021/12/23 10:58:26;;;;;;;;;;;3.80;99.90;;;;;;4994635;28;20056;-70
2021/12/23 11:00:54;;;;;;;;;;;3.80;99.90;;;;;;4994549;28;20181;-71
2021/12/23 11:03:26;;;;;;;;;;;3.80;99.90;;;;;;4987060;28;20076;-70
2021/12/23 11:06:05;;;;;;;;;;;3.80;99.90;;;;;;4986754;28;21175;-70
2021/12/23 11:08:42;;;;;;;;;;;3.80;99.90;;;;;;4987392;28;20068;-70
2021/12/23 11:28:29;;;;;;;;;;;4.50;99.90;;;;;;5002849;28;20054;-70
2021/12/23 11:39:24;;;;;;;;;;;4.70;99.90;;;;;;4984431;28;20084;-71
2021/12/23 11:42:00;;;;;;;;;;;4.70;99.90;;;;;;4986756;28;20052;-72
2021/12/23 11:44:30;;;;;;;;;;;4.80;99.90;;;;;;4986564;28;20141;-72
2021/12/23 11:47:01;;;;;;;;;;;4.80;99.90;;;;;;4984891;28;20297;-72
2021/12/23 11:49:28;;;;;;;;;;;4.80;99.90;;;;;;5010255;28;20066;-71
2021/12/23 11:51:55;;;;;;;;;;;4.80;99.90;;;;;;4992658;28;20059;-71
2021/12/23 11:54:26;;;;;;;;;;;4.80;99.90;;;;;;4986889;28;20105;-71
2021/12/23 11:56:55;;;;;;;;;;;4.80;99.90;;;;;;5017595;28;21044;-71
2021/12/23 11:59:24;;;;;;;;;;;4.70;99.90;;;;;;4982337;28;20092;-72
2021/12/23 12:01:52;;;;;;;;;;;4.70;99.90;;;;;;4985173;28;20076;-71
2021/12/23 12:04:24;;;;;;;;;;;4.70;99.90;;;;;;4985552;28;20375;-71
2021/12/23 12:06:52;;;;;;;;;;;4.80;99.90;;;;;;4981604;28;20169;-72
2021/12/23 12:09:22;;;;;;;;;;;5.00;99.90;;;;;;4985569;28;20162;-71
2021/12/23 12:12:04;;;;;;;;;;;5.20;99.90;;;;;;4981044;28;20188;-71
2021/12/23 12:14:34;;;;;;;;;;;5.50;99.90;;;;;;4980346;28;21161;-72
2021/12/23 12:17:15;;;;;;;;;;;6.00;99.90;;;;;;5017815;28;20100;-71
2021/12/23 12:19:52;;;;;;;;;;;6.30;99.90;;;;;;4988169;28;21128;-71
2021/12/23 12:22:34;;;;;;;;;;;6.60;99.90;;;;;;4985557;28;20179;-71
2021/12/23 12:25:01;;;;;;;;;;;6.60;99.90;;;;;;4984612;28;20077;-71
2021/12/23 12:27:31;;;;;;;;;;;6.60;99.90;;;;;;4984512;28;20060;-71
2021/12/23 12:30:06;;;;;;;;;;;6.50;99.90;;;;;;4986100;28;20059;-71
2021/12/23 12:32:37;;;;;;;;;;;6.40;99.90;;;;;;4981404;28;20076;-71
2021/12/23 12:35:11;;;;;;;;;;;6.30;99.90;;;;;;4986181;28;20199;-72
2021/12/23 12:37:41;;;;;;;;;;;6.30;99.90;;;;;;5017797;28;21276;-71
2021/12/23 12:40:09;;;;;;;;;;;6.40;99.90;;;;;;4986251;28;20285;-73
2021/12/23 12:42:43;;;;;;;;;;;6.40;99.90;;;;;;4988671;28;21188;-71
2021/12/23 12:45:15;;;;;;;;;;;6.40;99.90;;;;;;4990086;28;20234;-71
2021/12/23 12:47:49;;;;;;;;;;;6.40;99.90;;;;;;4989113;28;20100;-71
2021/12/23 12:50:17;;;;;;;;;;;6.40;99.90;;;;;;4990022;28;20075;-71
2021/12/23 12:52:45;;;;;;;;;;;6.50;99.90;;;;;;4989133;28;20076;-71
2021/12/23 12:55:13;;;;;;;;;;;6.60;99.90;;;;;;4988497;28;20068;-71
2021/12/23 12:57:46;;;;;;;;;;;6.70;99.90;;;;;;4988771;28;20203;-71
2021/12/23 13:00:19;;;;;;;;;;;6.70;99.90;;;;;;4988571;28;20103;-71
2021/12/23 13:02:50;;;;;;;;;;;6.70;99.90;;;;;;4985145;28;20066;-71
2021/12/23 13:05:25;;;;;;;;;;;6.60;99.90;;;;;;4987952;28;21050;-71
2021/12/23 13:08:16;;;;;;;;;;;6.50;99.90;;;;;;5007643;28;20174;-71
2021/12/23 13:10:50;;;;;;;;;;;6.40;99.90;;;;;;4984938;28;20077;-71
2021/12/23 13:14:00;;;;;;;;;;;6.30;99.90;;;;;;5003171;28;20083;-71
2021/12/23 13:16:53;;;;;;;;;;;6.10;99.90;;;;;;5003298;28;20171;-72
2021/12/23 13:19:21;;;;;;;;;;;5.90;99.90;;;;;;4980199;28;20069;-72
2021/12/23 13:21:50;;;;;;;;;;;5.70;99.90;;;;;;4987298;28;20074;-72
2021/12/23 13:24:18;;;;;;;;;;;5.50;99.90;;;;;;4988853;28;20072;-71
2021/12/23 13:26:46;;;;;;;;;;;5.40;99.90;;;;;;4988054;28;20120;-71
2021/12/23 13:29:14;;;;;;;;;;;5.30;99.90;;;;;;4988359;28;21120;-71
2021/12/23 13:31:43;;;;;;;;;;;5.20;99.90;;;;;;4987862;28;20082;-70
2021/12/23 13:34:12;;;;;;;;;;;5.20;99.90;;;;;;4988729;28;21002;-71
2021/12/23 13:36:40;;;;;;;;;;;5.10;99.90;;;;;;4983080;28;20162;-70
2021/12/23 13:39:07;;;;;;;;;;;5.10;99.90;;;;;;4988398;28;20075;-70
2021/12/23 13:41:36;;;;;;;;;;;5.10;99.90;;;;;;4995116;28;20068;-70
2021/12/23 13:44:19;;;;;;;;;;;5.10;99.90;;;;;;4989286;28;21072;-71
2021/12/23 13:46:57;;;;;;;;;;;5.20;99.90;;;;;;5006242;28;21167;-72
2021/12/23 13:49:31;;;;;;;;;;;5.50;99.90;;;;;;4986339;28;20088;-71
2021/12/23 13:51:59;;;;;;;;;;;5.50;99.90;;;;;;4988155;28;20083;-71
2021/12/23 13:54:35;;;;;;;;;;;5.60;99.90;;;;;;4986866;28;20171;-70
2021/12/23 13:57:02;;;;;;;;;;;5.60;99.90;;;;;;4988781;28;20294;-71
2021/12/23 13:59:31;;;;;;;;;;;5.60;99.90;;;;;;4989088;28;20150;-71
2021/12/23 14:02:04;;;;;;;;;;;5.60;99.90;;;;;;5019267;22;20068;-70
2021/12/23 14:04:36;;;;;;;;;;;5.60;99.90;;;;;;4987643;28;20061;-71
2021/12/23 14:07:07;;;;;;;;;;;5.60;99.90;;;;;;4997749;28;21079;-70
2021/12/23 14:09:35;;;;;;;;;;;5.60;99.90;;;;;;4997195;28;20076;-70
2021/12/23 14:12:04;;;;;;;;;;;5.50;99.90;;;;;;4993691;28;20060;-70
2021/12/23 14:14:31;;;;;;;;;;;5.40;99.90;;;;;;4999082;28;21164;-70
2021/12/23 14:17:24;;;;;;;;;;;5.30;99.90;;;;;;4983744;28;20145;-70
2021/12/23 14:23:11;;;;;;;;;;;5.20;99.90;;;;;;5001242;28;20069;-70
2021/12/23 14:25:30;;;;;;;;;;;5.00;99.90;;;;;;4992806;28;20059;-70
2021/12/23 14:27:57;;;;;;;;;;;5.00;99.90;;;;;;4996221;28;20211;-70
2021/12/23 14:30:33;;;;;;;;;;;5.00;99.90;;;;;;4997030;28;21033;-70
2021/12/23 14:33:09;;;;;;;;;;;5.10;99.90;;;;;;4983401;28;20068;-71
2021/12/23 14:35:36;;;;;;;;;;;5.30;99.90;;;;;;4993167;28;20060;-77
2021/12/23 14:38:04;;;;;;;;;;;5.40;99.90;;;;;;4981134;28;20068;-72
2021/12/23 14:40:31;;;;;;;;;;;5.60;99.90;;;;;;4983477;28;20060;-73
2021/12/23 14:42:58;;;;;;;;;;;5.70;99.90;;;;;;4984860;28;21207;-72
2021/12/23 14:45:26;;;;;;;;;;;5.70;99.90;;;;;;4983671;28;20069;-71
2021/12/23 14:48:11;;;;;;;;;;;5.80;99.90;;;;;;4983913;28;20124;-71
2021/12/23 14:50:50;;;;;;;;;;;5.80;99.90;;;;;;4984473;28;20208;-71
2021/12/23 14:53:19;;;;;;;;;;;6.00;99.90;;;;;;4985148;28;20051;-71
2021/12/23 14:55:53;;;;;;;;;;;6.20;99.90;;;;;;4982810;28;21157;-71
2021/12/23 14:58:21;;;;;;;;;;;6.40;99.90;;;;;;4983499;28;21165;-71
2021/12/23 15:00:48;;;;;;;;;;;6.60;99.90;;;;;;4979455;28;21147;-72
2021/12/23 15:03:16;;;;;;;;;;;6.70;99.90;;;;;;5000617;28;21088;-71
2021/12/23 15:05:46;;;;;;;;;;;6.90;99.90;;;;;;5000335;28;21143;-71
2021/12/23 15:08:17;;;;;;;;;;;6.90;99.90;;;;;;5000131;28;20238;-71
2021/12/23 15:10:45;;;;;;;;;;;7.00;99.90;;;;;;4978423;28;20076;-71
2021/12/23 15:13:20;;;;;;;;;;;7.10;99.90;;;;;;4997360;28;20051;-72
2021/12/23 15:15:48;;;;;;;;;;;7.10;99.90;;;;;;4996281;28;20074;-71
2021/12/23 15:18:28;;;;;;;;;;;7.20;99.90;;;;;;4996366;28;21314;-71
2021/12/23 15:20:58;;;;;;;;;;;7.30;99.90;;;;;;4981952;28;20057;-71
2021/12/23 15:23:39;;;;;;;;;;;7.30;99.90;;;;;;4985884;28;20060;-71
2021/12/23 15:26:19;;;;;;;;;;;7.30;99.90;;;;;;4985429;28;20156;-70
2021/12/23 15:29:01;;;;;;;;;;;7.30;99.90;;;;;;4985551;28;20078;-70
2021/12/23 15:31:28;;;;;;;;;;;7.30;99.90;;;;;;4983966;28;20142;-71
2021/12/23 15:33:56;;;;;;;;;;;7.20;99.90;;;;;;4978761;28;20282;-70
2021/12/23 15:36:24;;;;;;;;;;;7.30;99.90;;;;;;4980770;28;20077;-71
2021/12/23 15:38:51;;;;;;;;;;;7.20;99.90;;;;;;4982513;28;20097;-71